Time;durP1;ratioP1;P1;durP2;ratioP2;P2;SDS_P1;SDS_P2;PMS_P1;PMS_P2;Temp;Humidity;BMP_temperature;BMP_pressure;BME280_temperature;BME280_humidity;BME280_pressure;Samples;Min_cycle;Max_cycle;Signal;HPM_P1;HPM_P2
2022/07/23 00:01:57;;;;;;;7.87;5.57;;;;;;;25.61;61.50;99531.66;5126422;27;20205;-65
2022/07/23 00:04:24;;;;;;;5.27;4.97;;;;;;;25.59;61.51;99528.31;5111468;28;20191;-65
2022/07/23 00:06:50;;;;;;;5.47;4.97;;;;;;;25.55;62.42;99529.59;5130315;27;20254;-65
2022/07/23 00:09:17;;;;;;;7.03;5.23;;;;;;;25.51;62.23;99531.66;5131752;27;20201;-65
2022/07/23 00:11:44;;;;;;;5.27;5.07;;;;;;;25.48;62.61;99531.06;5124053;27;20662;-65
2022/07/23 00:14:11;;;;;;;5.10;4.80;;;;;;;25.43;62.63;99533.25;5110889;28;20751;-65
2022/07/23 00:16:37;;;;;;;5.10;4.77;;;;;;;25.40;62.77;99533.53;5111373;28;20615;-65
2022/07/23 00:19:06;;;;;;;5.53;5.17;;;;;;;25.35;62.99;99525.25;5113549;27;20225;-65
2022/07/23 00:21:32;;;;;;;7.60;4.70;;;;;;;25.33;62.50;99530.63;5111092;28;20195;-65
2022/07/23 00:23:59;;;;;;;6.43;5.57;;;;;;;25.30;62.51;99527.47;5111004;28;20252;-65
2022/07/23 00:26:26;;;;;;;5.20;4.87;;;;;;;25.28;63.18;99527.59;5117647;27;20213;-65
2022/07/23 00:28:53;;;;;;;5.00;4.73;;;;;;;25.24;63.00;99528.81;5131159;27;20202;-65
2022/07/23 00:31:20;;;;;;;5.60;5.20;;;;;;;25.22;63.68;99529.94;5131539;27;20250;-65
2022/07/23 00:33:46;;;;;;;5.53;4.77;;;;;;;25.18;64.09;99529.38;5130375;27;20198;-65
2022/07/23 00:36:15;;;;;;;5.43;4.67;;;;;;;25.17;64.33;99526.91;5125457;27;20692;-65
2022/07/23 00:38:41;;;;;;;4.40;4.20;;;;;;;25.15;64.36;99534.06;5120497;27;20680;-65
2022/07/23 00:41:08;;;;;;;5.70;4.60;;;;;;;25.13;64.86;99538.63;5111928;28;20210;-65
2022/07/23 00:43:35;;;;;;;5.63;5.23;;;;;;;24.96;65.18;99535.69;5110633;28;20648;-65
2022/07/23 00:46:02;;;;;;;4.73;4.43;;;;;;;24.92;64.85;99528.19;5117034;28;20670;-65
2022/07/23 00:48:29;;;;;;;5.67;5.17;;;;;;;24.87;64.47;99526.00;5128538;28;20201;-65
2022/07/23 00:50:56;;;;;;;4.43;4.10;;;;;;;24.86;65.26;99537.44;5131278;27;20626;-65
2022/07/23 00:53:24;;;;;;;5.33;4.93;;;;;;;24.81;64.85;99531.75;5110603;28;20226;-65
2022/07/23 00:55:51;;;;;;;4.50;4.20;;;;;;;24.77;63.95;99532.97;5130265;28;20190;-65
2022/07/23 00:58:19;;;;;;;5.47;4.97;;;;;;;24.75;64.03;99531.44;5130819;28;20574;-65
2022/07/23 01:00:46;;;;;;;6.00;5.10;;;;;;;24.72;63.94;99527.28;5130841;28;20214;-65
2022/07/23 01:03:13;;;;;;;4.83;4.43;;;;;;;24.72;64.04;99529.09;5130867;28;20697;-65
2022/07/23 01:05:40;;;;;;;5.87;4.57;;;;;;;24.69;64.08;99522.28;5128788;28;20209;-65
2022/07/23 01:08:07;;;;;;;5.00;4.70;;;;;;;24.68;64.21;99531.13;5114595;28;20586;-65
2022/07/23 01:10:36;;;;;;;4.43;4.17;;;;;;;24.68;64.19;99535.56;5125111;28;20222;-65
2022/07/23 01:13:04;;;;;;;5.77;5.07;;;;;;;24.64;64.81;99524.50;5130871;28;20230;-65
2022/07/23 01:15:31;;;;;;;4.53;4.20;;;;;;;24.63;64.57;99532.47;5130704;28;20586;-65
2022/07/23 01:17:58;;;;;;;5.03;4.73;;;;;;;24.58;64.99;99527.66;5130985;28;20198;-65
2022/07/23 01:20:25;;;;;;;7.37;4.83;;;;;;;24.54;65.10;99531.47;5130567;27;20214;-65
2022/07/23 01:22:53;;;;;;;5.10;4.67;;;;;;;24.51;65.51;99534.38;5130407;28;20191;-65
2022/07/23 01:25:21;;;;;;;5.40;5.10;;;;;;;24.48;65.85;99530.22;5130975;28;20203;-65
2022/07/23 01:27:48;;;;;;;4.50;4.20;;;;;;;24.48;65.98;99537.25;5131060;27;20194;-65
2022/07/23 01:30:16;;;;;;;4.73;4.43;;;;;;;24.42;66.16;99536.00;5130736;28;20334;-65
2022/07/23 01:32:43;;;;;;;10.37;4.90;;;;;;;24.38;66.70;99534.59;5130545;28;20209;-65
2022/07/23 01:35:10;;;;;;;5.50;5.20;;;;;;;24.35;67.03;99534.00;5121268;27;20275;-65
2022/07/23 01:37:37;;;;;;;5.33;4.93;;;;;;;24.33;67.36;99530.69;5116438;27;20203;-65
2022/07/23 01:40:07;;;;;;;5.80;5.30;;;;;;;24.13;67.71;99503.56;5110285;28;20275;-65
2022/07/23 01:42:36;;;;;;;5.73;5.23;;;;;;;24.23;68.17;99524.56;5115635;27;20248;-65
2022/07/23 01:45:04;;;;;;;6.10;5.80;;;;;;;24.20;68.95;99527.44;5114214;28;20191;-65
2022/07/23 01:47:30;;;;;;;6.40;5.93;;;;;;;24.09;70.23;99532.72;5116581;27;20199;-65
2022/07/23 01:49:57;;;;;;;6.60;6.20;;;;;;;24.01;70.56;99523.72;5113412;28;20197;-65
2022/07/23 01:52:24;;;;;;;15.43;7.67;;;;;;;23.96;72.31;99528.50;5119847;27;20247;-65
2022/07/23 01:54:51;;;;;;;8.27;7.43;;;;;;;23.93;72.88;99528.78;5133885;27;20198;-65
2022/07/23 01:57:19;;;;;;;13.47;8.07;;;;;;;23.90;72.62;99529.03;5134295;27;20586;-65
2022/07/23 01:59:46;;;;;;;8.47;7.63;;;;;;;23.87;73.06;99529.28;5133736;27;20220;-65
2022/07/23 02:02:13;;;;;;;8.40;7.70;;;;;;;23.84;73.32;99518.22;5133900;27;20691;-65
2022/07/23 02:04:39;;;;;;;8.67;7.97;;;;;;;23.82;73.21;99525.34;5121426;27;20194;-65
2022/07/23 02:07:07;;;;;;;9.30;8.47;;;;;;;23.79;72.93;99515.13;5113245;28;20572;-65
2022/07/23 02:09:34;;;;;;;10.27;9.30;;;;;;;23.75;73.17;99519.78;5113338;27;20198;-65
2022/07/23 02:12:01;;;;;;;13.50;10.00;;;;;;;23.74;73.36;99517.31;5112953;28;20201;-65
2022/07/23 02:14:29;;;;;;;10.23;9.27;;;;;;;23.67;74.26;99519.63;5114267;27;20199;-65
2022/07/23 02:16:56;;;;;;;11.00;9.97;;;;;;;23.61;74.04;99517.50;5113073;28;20202;-65
2022/07/23 02:19:23;;;;;;;16.57;9.70;;;;;;;23.60;74.01;99517.63;5113501;28;20226;-65
2022/07/23 02:21:50;;;;;;;11.13;10.10;;;;;;;23.56;74.24;99524.88;5113178;28;20211;-65
2022/07/23 02:24:17;;;;;;;10.73;9.77;;;;;;;23.48;74.39;99512.44;5112784;28;20199;-65
2022/07/23 02:26:44;;;;;;;12.47;11.07;;;;;;;23.39;74.19;99507.09;5113714;27;20195;-65
2022/07/23 02:29:11;;;;;;;14.13;11.67;;;;;;;23.38;74.41;99516.72;5112660;28;20202;-65
2022/07/23 02:31:39;;;;;;;17.37;13.03;;;;;;;23.30;74.71;99513.03;5112908;28;20574;-65
2022/07/23 02:34:07;;;;;;;14.80;12.83;;;;;;;23.25;74.84;99520.44;5118459;27;20655;-65
2022/07/23 02:36:34;;;;;;;17.93;13.77;;;;;;;23.16;73.94;99518.56;5119219;27;20294;-65
2022/07/23 02:39:00;;;;;;;20.97;16.03;;;;;;;23.03;73.08;99518.72;5122493;27;20201;-65
2022/07/23 02:41:27;;;;;;;22.10;15.87;;;;;;;23.03;72.91;99521.34;5132936;27;20217;-65
2022/07/23 02:43:54;;;;;;;20.87;16.43;;;;;;;23.00;72.54;99527.63;5129085;27;20701;-64
2022/07/23 02:46:21;;;;;;;20.60;16.70;;;;;;;22.93;72.53;99530.84;5112629;27;20195;-65
2022/07/23 02:48:49;;;;;;;24.40;15.87;;;;;;;22.92;72.06;99530.03;5112347;28;20194;-65
2022/07/23 02:51:16;;;;;;;21.93;16.17;;;;;;;22.93;72.23;99530.84;5131549;27;20262;-65
2022/07/23 02:53:43;;;;;;;25.90;16.50;;;;;;;22.93;72.17;99536.91;5131749;27;20221;-65
2022/07/23 02:56:09;;;;;;;23.90;16.37;;;;;;;22.95;71.65;99535.00;5132426;27;20197;-64
2022/07/23 02:58:36;;;;;;;25.30;17.87;;;;;;;22.92;71.47;99532.63;5132401;27;20210;-65
2022/07/23 03:01:03;;;;;;;20.83;15.73;;;;;;;22.98;71.45;99542.59;5132775;27;20622;-65
2022/07/23 03:03:30;;;;;;;25.40;16.83;;;;;;;22.99;70.82;99536.44;5132628;27;20198;-65
2022/07/23 03:05:58;;;;;;;29.13;16.87;;;;;;;23.00;70.63;99542.50;5132512;27;20198;-65
2022/07/23 03:08:25;;;;;;;23.93;16.07;;;;;;;22.98;70.72;99534.75;5122848;27;20685;-65
2022/07/23 03:10:52;;;;;;;16.47;14.53;;;;;;;22.95;70.53;99540.22;5117611;27;20202;-65
2022/07/23 03:13:19;;;;;;;19.17;14.67;;;;;;;22.93;70.58;99543.94;5112527;28;20210;-65
2022/07/23 03:15:45;;;;;;;19.30;12.97;;;;;;;22.88;70.46;99541.66;5115662;27;20198;-65
2022/07/23 03:18:12;;;;;;;20.73;14.83;;;;;;;22.89;70.63;99545.13;5128447;27;20201;-65
2022/07/23 03:20:39;;;;;;;18.13;13.60;;;;;;;22.89;70.07;99535.50;5132073;27;20685;-65
2022/07/23 03:23:07;;;;;;;22.17;13.43;;;;;;;22.93;70.30;99547.38;5112190;28;20206;-65
2022/07/23 03:25:34;;;;;;;15.50;13.93;;;;;;;22.96;70.30;99554.16;5111459;28;20194;-64
2022/07/23 03:28:01;;;;;;;19.90;14.40;;;;;;;23.00;70.06;99559.00;5111816;28;20663;-65
2022/07/23 03:30:28;;;;;;;17.03;14.70;;;;;;;23.02;69.81;99551.88;5115898;27;20199;-64
2022/07/23 03:32:55;;;;;;;16.60;14.27;;;;;;;23.00;69.86;99551.16;5119556;27;20259;-65
2022/07/23 03:35:21;;;;;;;18.67;13.63;;;;;;;23.06;69.93;99556.88;5131726;27;20206;-65
2022/07/23 03:37:48;;;;;;;22.53;15.77;;;;;;;23.09;69.58;99551.38;5120793;27;20198;-65
2022/07/23 03:40:17;;;;;;;29.90;16.87;;;;;;;23.09;69.40;99554.00;5111551;28;20271;-65
2022/07/23 03:42:45;;;;;;;22.50;15.10;;;;;;;23.05;69.28;99555.19;5111265;28;20198;-65
2022/07/23 03:45:12;;;;;;;22.63;15.67;;;;;;;22.89;69.43;99559.03;5111495;28;20604;-64
2022/07/23 03:47:39;;;;;;;26.63;15.17;;;;;;;22.84;69.90;99553.31;5112692;27;20666;-65
2022/07/23 03:50:07;;;;;;;24.30;16.53;;;;;;;22.88;70.40;99562.56;5125494;27;20318;-65
2022/07/23 03:52:34;;;;;;;24.57;16.80;;;;;;;22.80;70.04;99557.13;5131639;27;20222;-65
2022/07/23 03:55:01;;;;;;;35.53;18.40;;;;;;;22.83;70.05;99556.88;5131417;27;20662;-65
2022/07/23 03:57:30;;;;;;;63.33;33.57;;;;;;;22.86;70.02;99551.41;5131977;27;20212;-65
2022/07/23 03:59:57;;;;;;;75.10;32.90;;;;;;;22.86;70.48;99546.19;5112450;27;20211;-65
2022/07/23 04:02:23;;;;;;;62.40;30.33;;;;;;;23.02;70.23;99551.88;5131691;27;20193;-65
2022/07/23 04:04:50;;;;;;;35.97;22.73;;;;;;;23.14;70.13;99554.47;5122034;27;20675;-65
2022/07/23 04:07:17;;;;;;;31.47;17.33;;;;;;;23.24;69.53;99552.78;5110457;28;20210;-65
2022/07/23 04:09:44;;;;;;;23.93;14.63;;;;;;;23.35;69.56;99547.53;5113992;27;20290;-65
2022/07/23 04:12:11;;;;;;;24.20;15.20;;;;;;;23.54;68.95;99552.97;5111442;28;20276;-65
2022/07/23 04:14:39;;;;;;;18.40;14.13;;;;;;;23.65;67.61;99555.53;5110847;28;20195;-65
2022/07/23 04:17:06;;;;;;;21.13;11.87;;;;;;;23.82;66.91;99559.41;5110769;28;20216;-65
2022/07/23 04:19:33;;;;;;;19.00;13.70;;;;;;;23.95;66.44;99563.50;5111154;28;20194;-65
2022/07/23 04:22:00;;;;;;;15.10;12.33;;;;;;;24.09;64.86;99558.91;5112130;27;20305;-65
2022/07/23 04:24:27;;;;;;;14.53;12.13;;;;;;;24.18;64.75;99563.41;5115544;27;20198;-65
2022/07/23 04:26:54;;;;;;;14.40;11.50;;;;;;;24.31;64.54;99558.81;5118088;27;20207;-65
2022/07/23 04:29:20;;;;;;;13.13;11.90;;;;;;;24.45;64.40;99561.09;5114223;27;20209;-65
2022/07/23 04:31:48;;;;;;;12.50;11.27;;;;;;;24.58;63.76;99561.72;5112042;28;20210;-65
2022/07/23 04:34:15;;;;;;;14.57;12.53;;;;;;;24.75;63.60;99558.47;5110999;28;20203;-65
2022/07/23 04:36:42;;;;;;;16.00;12.83;;;;;;;24.92;63.65;99560.50;5110748;28;20195;-65
2022/07/23 04:39:09;;;;;;;16.60;13.00;;;;;;;25.02;63.26;99560.53;5110589;28;20279;-65
2022/07/23 04:41:36;;;;;;;15.53;12.57;;;;;;;25.11;62.67;99548.41;5110074;28;20209;-65
2022/07/23 04:44:03;;;;;;;20.57;13.70;;;;;;;25.32;62.43;99562.28;5127786;28;20190;-65
2022/07/23 04:46:30;;;;;;;17.07;12.90;;;;;;;25.51;61.88;99564.94;5130915;28;20224;-65
2022/07/23 04:48:58;;;;;;;21.23;13.03;;;;;;;25.69;62.51;99560.66;5128378;28;20198;-65
2022/07/23 04:51:25;;;;;;;13.27;11.97;;;;;;;25.84;61.56;99564.56;5111916;28;20640;-65
2022/07/23 04:53:52;;;;;;;15.70;12.43;;;;;;;26.06;61.46;99564.25;5113903;28;20201;-65
2022/07/23 04:56:19;;;;;;;15.80;12.53;;;;;;;26.23;59.48;99567.16;5128004;27;20670;-65
2022/07/23 04:58:46;;;;;;;13.87;11.27;;;;;;;26.36;59.58;99565.06;5128175;28;20650;-65
2022/07/23 05:01:13;;;;;;;13.80;12.37;;;;;;;26.57;58.84;99557.78;5130229;28;20289;-65
2022/07/23 05:03:39;;;;;;;16.33;11.70;;;;;;;26.70;58.14;99557.47;5130299;28;20198;-65
2022/07/23 05:06:08;;;;;;;12.77;10.87;;;;;;;26.90;57.79;99565.19;5110796;28;20670;-65
2022/07/23 05:08:35;;;;;;;12.20;11.23;;;;;;;27.09;58.18;99567.72;5114203;28;20214;-65
2022/07/23 05:11:01;;;;;;;13.80;12.03;;;;;;;27.26;57.50;99563.47;5114087;28;20198;-65
2022/07/23 05:13:28;;;;;;;13.67;11.63;;;;;;;27.45;56.70;99559.91;5120674;28;20206;-65
2022/07/23 05:15:55;;;;;;;12.47;10.53;;;;;;;27.58;56.85;99560.34;5119505;27;20227;-65
2022/07/23 05:18:22;;;;;;;15.57;11.70;;;;;;;27.73;54.95;99552.72;5121121;27;20563;-65
2022/07/23 05:20:49;;;;;;;12.07;10.80;;;;;;;27.96;54.28;99560.03;5125349;27;20263;-65
2022/07/23 05:23:17;;;;;;;12.37;11.10;;;;;;;28.15;54.66;99564.31;5126291;27;20213;-65
2022/07/23 05:25:44;;;;;;;11.73;10.83;;;;;;;28.38;54.70;99564.63;5130358;27;20677;-65
2022/07/23 05:28:10;;;;;;;11.90;10.90;;;;;;;28.61;54.10;99563.13;5127421;27;20199;-66
2022/07/23 05:30:37;;;;;;;13.73;10.67;;;;;;;28.81;54.08;99566.38;5131680;27;20206;-65
2022/07/23 05:33:04;;;;;;;11.45;10.45;;;;;;;29.06;54.49;99554.94;5124828;27;20206;-66
2022/07/23 05:35:31;;;;;;;12.90;11.25;;;;;;;29.19;53.83;99555.31;5122516;27;20202;-66
2022/07/23 05:37:58;;;;;;;11.05;10.15;;;;;;;29.39;51.89;99562.00;5123622;27;20202;-65
2022/07/23 05:40:26;;;;;;;10.13;9.23;;;;;;;29.49;52.12;99553.94;5125731;27;20202;-65
2022/07/23 05:42:53;;;;;;;10.20;9.30;;;;;;;29.54;51.02;99548.97;5118523;27;20199;-65
2022/07/23 05:45:20;;;;;;;11.20;9.80;;;;;;;29.70;52.55;99555.09;5128900;27;20199;-65
2022/07/23 05:47:48;;;;;;;11.07;9.93;;;;;;;29.83;50.55;99559.91;5125495;27;20634;-65
2022/07/23 05:50:16;;;;;;;10.77;8.38;;;;;;;29.94;50.85;99559.59;5132477;27;20251;-65
2022/07/23 05:52:43;;;;;;;11.38;10.07;;;;;;;30.11;50.86;99557.78;5122884;27;20229;-65
2022/07/23 05:55:12;;;;;;;11.43;9.13;;;;;;;30.34;49.01;99563.19;5118928;27;20205;-65
2022/07/23 05:57:42;;;;;;;11.10;9.65;;;;;;;30.53;49.74;99565.50;5119096;27;20194;-65
2022/07/23 06:00:11;;;;;;;10.88;9.65;;;;;;;30.77;48.87;99565.41;5125323;27;20204;-66
2022/07/23 06:02:39;;;;;;;10.63;9.05;;;;;;;30.82;47.98;99536.63;5124349;27;20214;-66
2022/07/23 06:05:07;;;;;;;9.13;8.05;;;;;;;31.19;47.31;99560.63;5123029;27;20255;-66
2022/07/23 06:07:34;;;;;;;9.02;8.18;;;;;;;31.36;46.81;99560.53;5120729;27;20233;-65
2022/07/23 06:10:01;;;;;;;13.63;8.05;;;;;;;31.37;45.01;99562.19;5128301;27;20204;-65
2022/07/23 06:12:28;;;;;;;11.65;8.07;;;;;;;31.45;46.63;99554.16;5123331;27;20206;-66
2022/07/23 06:14:56;;;;;;;8.00;7.43;;;;;;;31.66;46.23;99559.69;5121367;27;20202;-66
2022/07/23 06:17:23;;;;;;;9.43;6.45;;;;;;;31.77;45.45;99543.34;5124829;27;20205;-66
2022/07/23 06:19:50;;;;;;;7.88;6.03;;;;;;;32.02;42.47;99557.25;5123184;27;20194;-66
2022/07/23 06:22:16;;;;;;;6.10;5.40;;;;;;;32.11;42.13;99562.34;5128592;27;20222;-65
2022/07/23 06:24:43;;;;;;;6.28;5.55;;;;;;;32.24;42.23;99562.53;5122702;27;20217;-66
2022/07/23 06:27:10;;;;;;;5.07;4.78;;;;;;;32.40;40.78;99566.03;5125109;27;20209;-65
2022/07/23 06:29:37;;;;;;;6.30;5.72;;;;;;;32.29;41.96;99559.34;5115554;27;20206;-66
2022/07/23 06:32:06;;;;;;;6.70;5.00;;;;;;;32.50;40.55;99558.63;5131627;27;20590;-66
2022/07/23 06:34:32;;;;;;;5.72;5.22;;;;;;;32.67;38.07;99563.59;5131415;27;20575;-66
2022/07/23 06:36:59;;;;;;;5.38;5.07;;;;;;;32.84;38.72;99566.88;5125906;27;20695;-66
2022/07/23 06:39:26;;;;;;;6.43;5.03;;;;;;;32.91;39.50;99564.31;5127623;27;20628;-66
2022/07/23 06:41:53;;;;;;;5.57;4.82;;;;;;;33.05;40.04;99561.66;5118126;27;20767;-66
2022/07/23 06:44:20;;;;;;;12.90;6.13;;;;;;;33.19;38.92;99554.66;5126409;27;20198;-66
2022/07/23 06:46:47;;;;;;;5.10;4.72;;;;;;;33.31;39.84;99555.84;5114299;27;20195;-66
2022/07/23 06:49:15;;;;;;;5.75;5.45;;;;;;;33.39;38.78;99546.91;5127148;27;20202;-66
2022/07/23 06:51:42;;;;;;;7.15;5.18;;;;;;;33.60;40.89;99549.59;5116366;27;20199;-66
2022/07/23 06:54:09;;;;;;;5.53;5.20;;;;;;;33.70;39.08;99550.13;5120106;27;20199;-66
2022/07/23 06:56:35;;;;;;;4.95;4.60;;;;;;;33.73;38.85;99542.56;5128572;27;20635;-66
2022/07/23 06:59:03;;;;;;;5.28;4.82;;;;;;;33.93;39.39;99540.06;5126611;27;20224;-64
2022/07/23 07:01:30;;;;;;;4.70;4.43;;;;;;;33.94;40.27;99541.72;5131602;27;20246;-65
2022/07/23 07:03:56;;;;;;;4.88;4.47;;;;;;;33.99;37.98;99549.13;5131054;27;20205;-65
2022/07/23 07:06:25;;;;;;;6.70;4.90;;;;;;;33.98;38.50;99544.81;5127295;27;20206;-65
2022/07/23 07:08:51;;;;;;;7.30;5.03;;;;;;;34.10;37.63;99541.44;5120498;27;20198;-65
2022/07/23 07:11:18;;;;;;;6.10;4.05;;;;;;;34.25;36.83;99544.84;5125308;27;20692;-65
2022/07/23 07:13:45;;;;;;;6.13;4.20;;;;;;;34.37;35.94;99552.31;5123936;27;20207;-65
2022/07/23 07:16:12;;;;;;;4.72;4.35;;;;;;;34.54;34.90;99543.78;5130169;27;20697;-66
2022/07/23 07:18:39;;;;;;;4.40;4.20;;;;;;;34.58;34.60;99544.22;5129560;27;20217;-66
2022/07/23 07:21:06;;;;;;;6.43;4.72;;;;;;;34.71;35.12;99533.66;5120684;27;20222;-66
2022/07/23 07:23:34;;;;;;;4.53;4.18;;;;;;;34.92;34.79;99546.91;5123097;27;20198;-65
2022/07/23 07:26:01;;;;;;;4.22;3.97;;;;;;;35.15;33.32;99530.59;5121820;27;21030;-65
2022/07/23 07:28:28;;;;;;;8.75;4.85;;;;;;;35.48;34.65;99534.13;5126156;27;20209;-65
2022/07/23 07:30:55;;;;;;;3.88;3.63;;;;;;;35.62;32.68;99535.00;5131518;27;20285;-65
2022/07/23 07:33:21;;;;;;;4.47;4.28;;;;;;;35.71;33.06;99531.94;5116351;27;20741;-65
2022/07/23 07:35:49;;;;;;;5.30;4.88;;;;;;;35.97;33.52;99531.13;5130761;27;20205;-65
2022/07/23 07:38:15;;;;;;;5.00;4.70;;;;;;;36.06;32.86;99518.44;5122979;27;20213;-66
2022/07/23 07:40:44;;;;;;;4.88;4.47;;;;;;;36.28;32.98;99528.66;5123835;27;20206;-66
2022/07/23 07:43:10;;;;;;;4.72;4.35;;;;;;;36.50;34.09;99525.72;5114002;27;20205;-66
2022/07/23 07:45:37;;;;;;;8.48;5.07;;;;;;;36.52;33.33;99529.00;5111234;27;20205;-66
2022/07/23 07:48:05;;;;;;;4.70;4.30;;;;;;;36.58;33.33;99512.97;5113885;27;20202;-65
2022/07/23 07:50:32;;;;;;;4.80;4.38;;;;;;;36.86;32.43;99525.22;5121675;27;20614;-65
2022/07/23 07:52:58;;;;;;;4.05;3.85;;;;;;;36.94;32.37;99520.44;5126321;27;20605;-65
2022/07/23 07:55:26;;;;;;;4.68;4.38;;;;;;;36.93;33.34;99515.31;5124035;27;20287;-65
2022/07/23 07:57:55;;;;;;;6.15;4.85;;;;;;;37.14;32.01;99518.50;5115079;27;20207;-66
2022/07/23 08:00:21;;;;;;;4.30;4.10;;;;;;;37.08;31.53;99518.56;5126597;27;20228;-65
2022/07/23 08:02:50;;;;;;;4.07;3.88;;;;;;;37.13;31.32;99511.53;5128549;27;20224;-66
2022/07/23 08:05:20;;;;;;;7.15;4.25;;;;;;;37.41;30.81;99513.00;5129506;27;20261;-65
2022/07/23 08:07:47;;;;;;;7.10;4.35;;;;;;;37.57;32.99;99507.16;5123752;27;20742;-65
2022/07/23 08:10:14;;;;;;;5.55;4.80;;;;;;;37.74;33.04;99509.06;5119133;27;20213;-65
2022/07/23 08:12:44;;;;;;;4.68;4.45;;;;;;;37.83;32.60;99512.28;5115692;27;20190;-66
2022/07/23 08:15:13;;;;;;;14.10;4.47;;;;;;;37.97;31.06;99508.47;5117856;27;20204;-66
2022/07/23 08:17:40;;;;;;;12.32;4.30;;;;;;;37.87;29.21;99510.78;5114577;27;20207;-67
2022/07/23 08:20:09;;;;;;;5.68;4.38;;;;;;;37.76;29.48;99498.97;5116890;27;20205;-64
2022/07/23 08:22:43;;;;;;;6.07;3.80;;;;;;;37.84;30.93;99497.84;5127222;27;20236;-64
2022/07/23 08:25:10;;;;;;;4.65;4.25;;;;;;;38.04;30.36;99492.34;5114980;27;20592;-64
2022/07/23 08:27:37;;;;;;;4.40;4.00;;;;;;;38.02;29.32;99495.25;5115960;27;20263;-64
2022/07/23 08:30:05;;;;;;;6.33;4.70;;;;;;;38.06;30.13;99491.09;5117215;27;20433;-61
2022/07/23 08:32:33;;;;;;;3.67;3.47;;;;;;;38.37;30.29;99490.19;5114533;27;20217;-60
2022/07/23 08:35:00;;;;;;;4.25;3.50;;;;;;;38.27;28.29;99488.00;5130940;27;20194;-60
2022/07/23 08:37:27;;;;;;;3.47;3.25;;;;;;;38.35;27.77;99485.00;5127868;28;20205;-61
2022/07/23 08:39:56;;;;;;;26.02;6.07;;;;;;;38.59;29.59;99487.84;5127501;27;20692;-61
2022/07/23 08:42:22;;;;;;;13.25;4.43;;;;;;;38.73;29.75;99481.28;5116298;28;20225;-61
2022/07/23 08:44:50;;;;;;;6.28;3.90;;;;;;;38.81;29.63;99472.94;5113319;27;20198;-60
2022/07/23 08:47:17;;;;;;;13.02;4.53;;;;;;;38.97;27.58;99487.59;5123314;28;20198;-61
2022/07/23 08:49:46;;;;;;;4.30;4.00;;;;;;;39.00;28.61;99471.84;5130935;27;20206;-61
2022/07/23 08:52:14;;;;;;;3.20;3.00;;;;;;;39.21;27.88;99484.78;5114915;27;20416;-61
2022/07/23 08:54:41;;;;;;;4.18;3.97;;;;;;;39.14;27.72;99478.69;5120420;27;20202;-61
2022/07/23 08:57:08;;;;;;;3.88;3.58;;;;;;;38.97;30.39;99466.94;5125243;27;20259;-61
2022/07/23 08:59:35;;;;;;;4.13;3.22;;;;;;;39.18;28.55;99474.50;5116464;27;20199;-61
2022/07/23 09:02:01;;;;;;;5.40;3.70;;;;;;;39.19;26.40;99469.97;5115674;27;20221;-61
2022/07/23 09:04:28;;;;;;;3.90;3.60;;;;;;;39.19;28.10;99470.78;5114142;28;20205;-61
2022/07/23 09:06:57;;;;;;;4.25;3.55;;;;;;;39.29;27.38;99475.63;5119068;27;20201;-60
2022/07/23 09:09:29;;;;;;;3.88;3.67;;;;;;;39.48;26.68;99473.66;5132653;27;20210;-60
2022/07/23 09:12:07;;;;;;;4.28;3.85;;;;;;;39.00;24.90;99466.50;5134165;27;20217;-60
2022/07/23 09:14:38;;;;;;;4.10;3.90;;;;;;;38.54;25.57;99472.47;5122467;27;20229;-60
2022/07/23 09:17:12;;;;;;;4.60;4.40;;;;;;;38.84;29.50;99477.84;5130751;27;20591;-61
2022/07/23 09:19:40;;;;;;;4.78;3.80;;;;;;;39.00;27.95;99465.69;5125319;27;20202;-60
2022/07/23 09:22:26;;;;;;;4.45;4.10;;;;;;;39.15;26.48;99464.22;5134056;27;20748;-60
2022/07/23 09:25:14;;;;;;;4.05;3.80;;;;;;;39.39;27.41;99459.75;5133263;27;20198;-60
2022/07/23 09:27:52;;;;;;;3.83;3.63;;;;;;;39.69;25.64;99465.06;5128282;27;20190;-59
2022/07/23 09:30:19;;;;;;;3.92;3.50;;;;;;;39.84;26.93;99457.38;5134569;27;20573;-60
2022/07/23 09:33:09;;;;;;;3.30;3.10;;;;;;;39.88;24.04;99456.66;5134631;27;20187;-60
2022/07/23 09:35:48;;;;;;;3.65;3.38;;;;;;;40.04;24.93;99452.44;5132202;27;20195;-60
2022/07/23 09:38:17;;;;;;;4.53;3.95;;;;;;;39.80;24.29;99450.84;5134802;27;20225;-60
2022/07/23 09:40:45;;;;;;;4.53;4.18;;;;;;;39.43;23.62;99434.09;5114294;28;20257;-60
2022/07/23 09:43:12;;;;;;;3.25;3.15;;;;;;;39.63;25.22;99439.94;5114267;28;20210;-60
2022/07/23 09:45:40;;;;;;;3.85;3.65;;;;;;;39.68;26.39;99441.97;5114376;28;20199;-60
2022/07/23 09:48:14;;;;;;;4.53;3.63;;;;;;;39.75;24.78;99445.34;5114331;28;20750;-60
2022/07/23 09:50:41;;;;;;;4.10;3.75;;;;;;;39.90;25.07;99442.19;5114066;28;20202;-60
2022/07/23 09:53:09;;;;;;;5.03;3.78;;;;;;;40.12;23.64;99441.38;5113623;28;20222;-60
2022/07/23 09:55:38;;;;;;;4.32;3.95;;;;;;;40.15;25.80;99437.41;5113984;28;20287;-60
2022/07/23 09:58:08;;;;;;;3.65;3.55;;;;;;;40.30;24.99;99435.84;5125457;27;20262;-60
2022/07/23 10:00:37;;;;;;;4.15;3.25;;;;;;;40.23;22.83;99431.66;5132641;27;20210;-60
2022/07/23 10:03:06;;;;;;;4.70;3.55;;;;;;;40.34;24.44;99436.19;5133175;27;20221;-60
2022/07/23 10:05:35;;;;;;;4.78;4.50;;;;;;;40.39;23.25;99430.94;5113833;27;20198;-61
2022/07/23 10:08:03;;;;;;;4.07;3.83;;;;;;;40.58;25.79;99431.59;5113603;28;20203;-61
2022/07/23 10:10:32;;;;;;;4.93;3.17;;;;;;;40.55;22.52;99434.75;5116300;27;20210;-60
2022/07/23 10:13:31;;;;;;;3.58;3.28;;;;;;;40.19;22.49;99422.44;5125210;27;20582;-60
2022/07/23 10:16:00;;;;;;;3.63;3.42;;;;;;;39.59;22.83;99432.59;5122215;27;20751;-61
2022/07/23 10:18:27;;;;;;;3.85;3.65;;;;;;;39.13;23.00;99418.03;5115007;27;20571;-60
2022/07/23 10:20:54;;;;;;;3.22;3.03;;;;;;;39.25;24.49;99415.41;5119153;27;20586;-60
2022/07/23 10:23:29;;;;;;;5.13;4.45;;;;;;;39.61;27.76;99420.59;5133922;27;20209;-60
2022/07/23 10:26:03;;;;;;;5.13;3.78;;;;;;;39.83;25.52;99418.16;5133888;27;20234;-60
2022/07/23 10:28:49;;;;;;;6.78;4.00;;;;;;;40.00;24.52;99413.69;5133786;27;20664;-60
2022/07/23 10:31:27;;;;;;;3.67;3.42;;;;;;;40.09;25.02;99406.91;5134000;27;20593;-61
2022/07/23 10:34:03;;;;;;;4.03;3.72;;;;;;;40.23;23.48;99410.19;5133457;27;20194;-60
2022/07/23 10:36:39;;;;;;;4.13;3.72;;;;;;;40.27;22.28;99408.63;5113155;28;20195;-60
2022/07/23 10:39:09;;;;;;;3.53;3.30;;;;;;;40.26;23.53;99402.44;5113199;28;20687;-60
2022/07/23 10:41:38;;;;;;;4.93;3.28;;;;;;;40.51;24.19;99398.63;5113252;28;20275;-60
2022/07/23 10:44:12;;;;;;;3.33;3.20;;;;;;;40.63;23.66;99385.97;5112956;28;20306;-60
2022/07/23 10:47:15;;;;;;;5.20;4.15;;;;;;;40.70;22.70;99387.47;5113012;28;20199;-60
2022/07/23 10:49:42;;;;;;;3.95;3.55;;;;;;;40.77;23.36;99393.50;5112904;28;20199;-60
2022/07/23 10:52:27;;;;;;;3.67;3.47;;;;;;;40.84;23.94;99383.41;5113020;28;20219;-60
2022/07/23 10:54:56;;;;;;;4.40;4.10;;;;;;;40.73;22.80;99380.78;5112942;27;20207;-61
2022/07/23 10:57:26;;;;;;;7.50;3.50;;;;;;;40.65;23.45;99379.28;5112732;27;20202;-60
2022/07/23 11:00:21;;;;;;;4.50;3.30;;;;;;;40.47;22.54;99381.34;5112614;28;20209;-60
2022/07/23 11:02:49;;;;;;;9.02;3.60;;;;;;;40.34;22.42;99369.81;5112613;28;20272;-60
2022/07/23 11:05:18;;;;;;;4.63;4.32;;;;;;;40.08;23.90;99373.03;5112765;27;20195;-60
2022/07/23 11:08:16;;;;;;;4.53;4.22;;;;;;;40.02;23.54;99367.78;5116843;27;20198;-61
2022/07/23 11:10:45;;;;;;;3.33;3.13;;;;;;;40.04;24.49;99366.50;5131045;27;20197;-61
2022/07/23 11:13:53;;;;;;;4.93;4.00;;;;;;;40.12;24.13;99347.38;5124728;27;20217;-60
2022/07/23 11:16:26;;;;;;;3.90;3.70;;;;;;;40.23;23.10;99354.56;5124430;27;20233;-59
2022/07/23 11:19:07;;;;;;;4.95;3.67;;;;;;;40.34;23.73;99360.94;5132783;27;20273;-60
2022/07/23 11:21:56;;;;;;;3.97;3.78;;;;;;;40.31;22.70;99348.81;5127472;27;20552;-60
2022/07/23 11:24:24;;;;;;;3.17;3.05;;;;;;;40.11;22.98;99345.72;5113567;27;20679;-60
2022/07/23 11:26:54;;;;;;;4.28;3.97;;;;;;;40.33;24.05;99343.19;5112456;28;20198;-60
2022/07/23 11:29:48;;;;;;;5.20;3.40;;;;;;;40.13;21.66;99348.97;5112102;28;20205;-60
2022/07/23 11:32:33;;;;;;;4.75;4.35;;;;;;;39.90;22.22;99351.72;5127389;27;20202;-60
2022/07/23 11:35:00;;;;;;;4.53;4.22;;;;;;;39.86;21.89;99347.88;5111815;28;20207;-60